createdAt,value
2019-02-05T00:00:50.674Z,5.40
2019-02-05T00:01:50.688Z,4.50
2019-02-05T00:02:50.657Z,4.80
2019-02-05T00:03:50.640Z,4.40
2019-02-05T00:04:50.691Z,5.40
2019-02-05T00:05:50.623Z,5.00
2019-02-05T00:06:50.608Z,4.50
2019-02-05T00:07:50.622Z,4.90
2019-02-05T00:08:50.587Z,4.90
2019-02-05T00:09:50.599Z,4.60
2019-02-05T00:10:50.566Z,5.00
2019-02-05T00:11:50.559Z,4.60
2019-02-05T00:12:50.543Z,4.80
2019-02-05T00:13:50.557Z,4.30
2019-02-05T00:14:50.546Z,4.70
2019-02-05T00:15:50.515Z,4.60
2019-02-05T00:16:50.514Z,4.70
2019-02-05T00:17:50.488Z,4.70
2019-02-05T00:18:51.742Z,4.40
2019-02-05T00:19:50.558Z,4.90
2019-02-05T00:20:50.458Z,4.50
2019-02-05T00:21:50.445Z,4.50
2019-02-05T00:22:50.437Z,4.70
2019-02-05T00:23:50.426Z,4.40
2019-02-05T00:24:50.453Z,5.40
2019-02-05T00:25:50.434Z,5.50
2019-02-05T00:26:50.392Z,6.90
2019-02-05T00:27:50.379Z,6.60
2019-02-05T00:28:50.367Z,6.70
2019-02-05T00:29:50.359Z,6.90
2019-02-05T00:30:50.370Z,7.20
2019-02-05T00:31:50.342Z,6.10
2019-02-05T00:32:50.325Z,6.30
2019-02-05T00:33:50.318Z,6.20
2019-02-05T00:34:50.304Z,5.00
2019-02-05T00:35:50.317Z,5.20
2019-02-05T00:36:50.282Z,4.80
2019-02-05T00:37:50.282Z,4.70
2019-02-05T00:38:50.260Z,5.00
2019-02-05T00:39:50.247Z,4.90
2019-02-05T00:40:50.264Z,5.20
2019-02-05T00:41:50.233Z,4.70
2019-02-05T00:42:50.215Z,5.20
2019-02-05T00:43:50.216Z,5.10
2019-02-05T00:44:50.196Z,4.60
2019-02-05T00:45:50.207Z,5.30
2019-02-05T00:46:50.173Z,5.20
2019-02-05T00:47:50.160Z,5.20
2019-02-05T00:48:50.230Z,4.80
2019-02-05T00:49:50.159Z,4.70
2019-02-05T00:50:50.153Z,4.70
2019-02-05T00:51:50.119Z,4.40
2019-02-05T00:52:50.106Z,4.60
2019-02-05T00:53:50.098Z,4.90
2019-02-05T00:54:50.087Z,4.80
2019-02-05T00:55:50.129Z,5.20
2019-02-05T00:56:50.062Z,4.80
2019-02-05T00:57:50.052Z,4.80
2019-02-05T00:58:50.042Z,4.70
2019-02-05T00:59:50.027Z,4.60
2019-02-05T01:00:50.046Z,4.30
2019-02-05T01:01:50.021Z,4.70
2019-02-05T01:02:49.996Z,5.10
2019-02-05T01:03:49.986Z,4.70
2019-02-05T01:04:49.974Z,5.00
2019-02-05T01:05:49.990Z,4.80
2019-02-05T01:06:49.952Z,4.70
2019-02-05T01:07:49.952Z,5.00
2019-02-05T01:08:49.958Z,4.80
2019-02-05T01:09:49.923Z,4.90
2019-02-05T01:10:49.938Z,4.50
2019-02-05T01:11:49.897Z,5.00
2019-02-05T01:12:49.889Z,4.90
2019-02-05T01:13:49.881Z,4.70
2019-02-05T01:14:49.895Z,5.00
2019-02-05T01:15:49.881Z,5.50
2019-02-05T01:16:49.846Z,5.00
2019-02-05T01:17:49.834Z,6.10
2019-02-05T01:18:49.826Z,4.70
2019-02-05T01:19:49.810Z,4.60
2019-02-05T01:20:49.841Z,4.40
2019-02-05T01:21:49.790Z,4.70
2019-02-05T01:22:49.779Z,5.00
2019-02-05T01:23:49.768Z,4.50
2019-02-05T01:24:49.759Z,4.70
2019-02-05T01:25:49.771Z,5.30
2019-02-05T01:26:49.755Z,5.40
2019-02-05T01:27:49.728Z,4.20
2019-02-05T01:28:49.717Z,4.90
2019-02-05T01:29:49.702Z,4.90
2019-02-05T01:30:49.717Z,4.40
2019-02-05T01:31:49.680Z,4.80
2019-02-05T01:32:49.689Z,4.70
2019-02-05T01:33:49.660Z,4.50
2019-02-05T01:34:49.651Z,4.70
2019-02-05T01:35:49.668Z,4.80
2019-02-05T01:36:49.631Z,4.20
2019-02-05T01:37:49.616Z,4.60
2019-02-05T01:38:49.608Z,4.40
2019-02-05T01:39:49.609Z,4.30
2019-02-05T01:40:49.608Z,4.10
2019-02-05T01:41:49.572Z,5.20
2019-02-05T01:42:49.561Z,4.70
2019-02-05T01:43:49.550Z,5.20
2019-02-05T01:44:49.539Z,4.60
2019-02-05T01:45:49.589Z,5.20
2019-02-05T01:46:49.516Z,5.30
2019-02-05T01:47:49.513Z,4.90
2019-02-05T01:48:49.496Z,5.30
2019-02-05T01:49:49.487Z,5.60
2019-02-05T01:50:49.500Z,5.20
2019-02-05T01:51:49.467Z,4.80
2019-02-05T01:52:49.454Z,4.90
2019-02-05T01:53:49.441Z,5.30
2019-02-05T01:54:49.430Z,5.30
2019-02-05T01:55:49.454Z,5.50
2019-02-05T01:56:49.409Z,5.20
2019-02-05T01:57:49.412Z,5.60
2019-02-05T01:58:49.389Z,5.90
2019-02-05T01:59:49.374Z,5.70
2019-02-05T02:00:49.553Z,6.10
2019-02-05T02:01:49.355Z,5.80
2019-02-05T02:02:49.343Z,5.20
2019-02-05T02:03:49.355Z,5.60
2019-02-05T02:04:49.325Z,6.00
2019-02-05T02:05:49.314Z,5.20
2019-02-05T02:06:49.323Z,5.80
2019-02-05T02:07:49.289Z,5.90
2019-02-05T02:08:49.281Z,6.10
2019-02-05T02:09:49.277Z,5.70
2019-02-05T02:10:49.320Z,5.50
2019-02-05T02:11:49.270Z,5.60
2019-02-05T02:12:49.234Z,5.40
2019-02-05T02:13:49.223Z,5.60
2019-02-05T02:14:49.211Z,6.10
2019-02-05T02:15:49.200Z,6.20
2019-02-05T02:16:49.228Z,5.80
2019-02-05T02:17:49.177Z,5.60
2019-02-05T02:18:49.167Z,5.70
2019-02-05T02:19:49.158Z,6.10
2019-02-05T02:20:49.146Z,6.00
2019-02-05T02:21:49.157Z,5.90
2019-02-05T02:22:49.135Z,5.90
2019-02-05T02:23:49.112Z,5.80
2019-02-05T02:24:49.101Z,6.50
2019-02-05T02:25:49.090Z,6.20
2019-02-05T02:26:52.114Z,6.20
2019-02-05T02:27:49.110Z,6.40
2019-02-05T02:28:49.073Z,6.20
2019-02-05T02:29:49.052Z,6.50
2019-02-05T02:30:49.032Z,6.30
2019-02-05T02:31:49.054Z,6.30
2019-02-05T02:32:49.017Z,5.40
2019-02-05T02:33:49.002Z,6.00
2019-02-05T02:34:49.021Z,6.00
2019-02-05T02:35:48.980Z,5.80
2019-02-05T02:36:48.997Z,6.00
2019-02-05T02:37:48.962Z,6.50
2019-02-05T02:38:48.958Z,5.90
2019-02-05T02:39:48.933Z,6.30
2019-02-05T02:40:48.951Z,6.60
2019-02-05T02:41:48.912Z,6.30
2019-02-05T02:42:48.929Z,6.50
2019-02-05T02:43:48.891Z,6.90
2019-02-05T02:44:48.877Z,6.60
2019-02-05T02:45:48.866Z,6.10
2019-02-05T02:46:48.879Z,6.00
2019-02-05T02:47:48.868Z,6.20
2019-02-05T02:48:48.835Z,6.90
2019-02-05T02:49:48.821Z,6.10
2019-02-05T02:50:48.810Z,6.40
2019-02-05T02:51:48.802Z,6.60
2019-02-05T02:52:48.841Z,6.60
2019-02-05T02:53:48.778Z,6.60
2019-02-05T02:54:48.774Z,7.00
2019-02-05T02:55:48.760Z,6.60
2019-02-05T02:56:48.756Z,7.10
2019-02-05T02:57:48.733Z,6.90
2019-02-05T02:58:48.776Z,6.70
2019-02-05T02:59:48.711Z,7.20
2019-02-05T03:00:48.699Z,6.00
2019-02-05T03:01:48.692Z,7.00
2019-02-05T03:02:48.681Z,6.80
2019-02-05T03:03:48.697Z,5.80
2019-02-05T03:04:48.665Z,6.60
2019-02-05T03:05:48.645Z,6.80
2019-02-05T03:06:48.633Z,5.90
2019-02-05T03:07:48.620Z,6.50
2019-02-05T03:08:48.633Z,8.00
2019-02-05T03:09:48.609Z,7.30
2019-02-05T03:10:48.597Z,6.80
2019-02-05T03:11:48.602Z,7.00
2019-02-05T03:12:48.570Z,7.10
2019-02-05T03:13:48.581Z,7.00
2019-02-05T03:14:48.543Z,6.40
2019-02-05T03:15:48.533Z,7.10
2019-02-05T03:16:48.522Z,7.00
2019-02-05T03:17:48.529Z,6.80
2019-02-05T03:18:48.538Z,7.40
2019-02-05T03:19:48.494Z,6.80
2019-02-05T03:20:48.480Z,7.80
2019-02-05T03:21:48.464Z,6.50
2019-02-05T03:22:48.464Z,7.50
2019-02-05T03:23:48.444Z,7.20
2019-02-05T03:24:48.498Z,6.90
2019-02-05T03:25:48.423Z,7.60
2019-02-05T03:26:48.409Z,6.80
2019-02-05T03:27:48.398Z,7.30
2019-02-05T03:28:48.390Z,7.10
2019-02-05T03:29:48.402Z,7.20
2019-02-05T03:30:48.389Z,7.80
2019-02-05T03:31:48.361Z,7.90
2019-02-05T03:32:48.353Z,7.70
2019-02-05T03:33:48.332Z,7.40
2019-02-05T03:34:48.351Z,8.10
2019-02-05T03:35:48.311Z,7.00
2019-02-05T03:36:48.307Z,8.10
2019-02-05T03:37:48.298Z,7.60
2019-02-05T03:38:48.278Z,7.80
2019-02-05T03:39:48.290Z,7.80
2019-02-05T03:40:48.256Z,8.20
2019-02-05T03:41:48.243Z,8.10
2019-02-05T03:42:48.250Z,7.30
2019-02-05T03:43:48.222Z,8.20
2019-02-05T03:44:48.233Z,7.70
2019-02-05T03:45:48.300Z,7.50
2019-02-05T03:46:48.190Z,7.80
2019-02-05T03:47:48.191Z,8.30
2019-02-05T03:48:48.169Z,8.00
2019-02-05T03:49:48.181Z,7.90
2019-02-05T03:50:48.157Z,7.90
2019-02-05T03:51:48.135Z,7.70
2019-02-05T03:52:48.123Z,8.50
2019-02-05T03:53:48.110Z,8.10
2019-02-05T03:54:48.122Z,7.30
2019-02-05T03:55:48.087Z,8.10
2019-02-05T03:56:48.105Z,8.10
2019-02-05T03:57:48.065Z,7.80
2019-02-05T03:58:48.054Z,7.60
2019-02-05T03:59:48.071Z,8.00
2019-02-05T04:00:48.031Z,8.50
2019-02-05T04:01:48.021Z,7.40
2019-02-05T04:02:48.021Z,8.30
2019-02-05T04:03:47.999Z,8.10
2019-02-05T04:04:48.005Z,8.50
2019-02-05T04:05:48.003Z,8.50
2019-02-05T04:06:47.968Z,8.90
2019-02-05T04:07:47.956Z,8.70
2019-02-05T04:08:47.944Z,8.90
2019-02-05T04:09:47.954Z,8.70
2019-02-05T04:10:47.948Z,9.00
2019-02-05T04:11:47.912Z,8.20
2019-02-05T04:12:47.901Z,8.20
2019-02-05T04:13:47.890Z,8.50
2019-02-05T04:14:47.890Z,8.90
2019-02-05T04:15:47.914Z,8.60
2019-02-05T04:16:47.859Z,9.20
2019-02-05T04:17:47.848Z,8.40
2019-02-05T04:18:47.839Z,8.20
2019-02-05T04:19:47.829Z,8.10
2019-02-05T04:20:47.812Z,7.80
2019-02-05T04:21:47.845Z,8.90
2019-02-05T04:22:47.800Z,9.10
2019-02-05T04:23:47.780Z,8.90
2019-02-05T04:24:47.770Z,9.20
2019-02-05T04:25:47.759Z,8.80
2019-02-05T04:26:47.778Z,8.90
2019-02-05T04:27:47.743Z,8.80
2019-02-05T04:28:47.743Z,8.80
2019-02-05T04:29:47.716Z,8.20
2019-02-05T04:30:47.704Z,8.60
2019-02-05T04:31:47.717Z,8.30
2019-02-05T04:32:47.684Z,9.50
2019-02-05T04:33:47.671Z,9.60
2019-02-05T04:34:47.702Z,8.60
2019-02-05T04:35:47.665Z,9.20
2019-02-05T04:36:47.662Z,9.50
2019-02-05T04:37:47.635Z,9.40
2019-02-05T04:38:47.616Z,9.10
2019-02-05T04:39:47.608Z,8.40
2019-02-05T04:40:47.607Z,8.10
2019-02-05T04:41:47.612Z,9.00
2019-02-05T04:42:47.575Z,8.10
2019-02-05T04:43:47.561Z,8.20
2019-02-05T04:44:47.573Z,8.70
2019-02-05T04:45:47.541Z,8.60
2019-02-05T04:46:47.559Z,9.40
2019-02-05T04:47:47.518Z,8.10
2019-02-05T04:48:47.513Z,8.60
2019-02-05T04:49:47.495Z,8.50
2019-02-05T04:50:47.482Z,8.90
2019-02-05T04:51:47.497Z,8.10
2019-02-05T04:52:47.466Z,8.70
2019-02-05T04:53:47.450Z,9.10
2019-02-05T04:54:47.562Z,8.60
2019-02-05T04:55:47.437Z,8.20
2019-02-05T04:56:47.452Z,8.60
2019-02-05T04:57:56.934Z,8.50
2019-02-05T04:58:48.398Z,9.40
2019-02-05T04:59:47.393Z,9.00
2019-02-05T05:00:47.374Z,7.90
2019-02-05T05:01:47.362Z,8.80
2019-02-05T05:02:47.375Z,9.40
2019-02-05T05:03:47.345Z,8.60
2019-02-05T05:04:47.328Z,9.50
2019-02-05T05:05:47.333Z,8.90
2019-02-05T05:06:47.306Z,8.90
2019-02-05T05:07:47.341Z,9.30
2019-02-05T05:08:47.284Z,8.90
2019-02-05T05:09:47.275Z,8.40
2019-02-05T05:10:47.261Z,8.20
2019-02-05T05:11:47.295Z,9.00
2019-02-05T05:12:47.269Z,10.00
2019-02-05T05:13:47.231Z,8.90
2019-02-05T05:14:47.217Z,8.90
2019-02-05T05:15:47.206Z,8.70
2019-02-05T05:16:47.205Z,8.40
2019-02-05T05:17:47.239Z,9.40
2019-02-05T05:18:47.183Z,9.50
2019-02-05T05:19:47.164Z,8.60
2019-02-05T05:20:47.152Z,8.60
2019-02-05T05:21:47.153Z,9.00
2019-02-05T05:22:47.155Z,8.50
2019-02-05T05:23:47.142Z,9.00
2019-02-05T05:24:47.110Z,7.90
2019-02-05T05:25:47.099Z,7.90
2019-02-05T05:26:47.091Z,7.80
2019-02-05T05:27:47.121Z,8.70
2019-02-05T05:28:47.066Z,9.00
2019-02-05T05:29:47.080Z,8.40
2019-02-05T05:30:47.044Z,7.70
2019-02-05T05:31:47.034Z,8.10
2019-02-05T05:32:47.049Z,7.70
2019-02-05T05:33:47.014Z,8.70
2019-02-05T05:34:47.004Z,7.70
2019-02-05T05:35:47.029Z,8.60
2019-02-05T05:36:46.977Z,8.50
2019-02-05T05:37:46.991Z,8.20
2019-02-05T05:38:46.956Z,8.60
2019-02-05T05:39:46.946Z,8.20
2019-02-05T05:40:46.942Z,9.30
2019-02-05T05:41:46.950Z,8.90
2019-02-05T05:42:46.934Z,8.10
2019-02-05T05:43:46.904Z,8.00
2019-02-05T05:44:46.890Z,8.00
2019-02-05T05:45:46.879Z,8.00
2019-02-05T05:46:46.870Z,8.40
2019-02-05T05:47:46.905Z,8.40
2019-02-05T05:48:46.846Z,8.90
2019-02-05T05:49:46.844Z,7.70
2019-02-05T05:50:46.825Z,8.80
2019-02-05T05:51:46.813Z,8.00
2019-02-05T05:52:46.845Z,8.50
2019-02-05T05:53:46.803Z,8.90
2019-02-05T05:54:46.796Z,7.70
2019-02-05T05:55:46.769Z,8.40
2019-02-05T05:56:46.759Z,8.20
2019-02-05T05:57:46.754Z,8.50
2019-02-05T05:58:46.759Z,7.40
2019-02-05T05:59:46.753Z,7.70
2019-02-05T06:00:46.715Z,9.10
2019-02-05T06:01:46.704Z,8.40
2019-02-05T06:02:46.708Z,8.10
2019-02-05T06:03:46.741Z,8.20
2019-02-05T06:04:46.678Z,7.40
2019-02-05T06:05:46.674Z,8.00
2019-02-05T06:06:46.669Z,7.30
2019-02-05T06:07:46.644Z,8.10
2019-02-05T06:08:46.632Z,7.80
2019-02-05T06:09:46.648Z,8.00
2019-02-05T06:10:46.604Z,8.50
2019-02-05T06:11:46.606Z,8.20
2019-02-05T06:12:46.580Z,7.80
2019-02-05T06:13:46.570Z,7.70
2019-02-05T06:14:46.581Z,7.30
2019-02-05T06:15:46.551Z,7.40
2019-02-05T06:16:46.542Z,7.70
2019-02-05T06:17:46.544Z,7.00
2019-02-05T06:18:46.515Z,7.60
2019-02-05T06:19:46.530Z,7.40
2019-02-05T06:20:46.495Z,6.80
2019-02-05T06:21:46.483Z,7.20
2019-02-05T06:22:46.470Z,7.40
2019-02-05T06:23:46.473Z,7.70
2019-02-05T06:24:46.477Z,8.30
2019-02-05T06:25:46.443Z,8.60
2019-02-05T06:26:46.426Z,8.20
2019-02-05T06:27:46.418Z,7.80
2019-02-05T06:28:46.403Z,8.30
2019-02-05T06:29:46.452Z,8.50
2019-02-05T06:30:46.381Z,8.80
2019-02-05T06:31:46.441Z,8.20
2019-02-05T06:32:46.368Z,7.50
2019-02-05T06:33:46.350Z,7.80
2019-02-05T06:34:46.372Z,8.90
2019-02-05T06:35:46.349Z,7.40
2019-02-05T06:36:46.316Z,8.40
2019-02-05T06:37:46.308Z,8.10
2019-02-05T06:38:46.313Z,8.00
2019-02-05T06:39:46.338Z,8.20
2019-02-05T06:40:46.280Z,7.90
2019-02-05T06:41:46.284Z,7.70
2019-02-05T06:42:46.264Z,8.50
2019-02-05T06:43:46.238Z,9.40
2019-02-05T06:44:46.227Z,9.20
2019-02-05T06:45:46.267Z,8.90
2019-02-05T06:46:46.204Z,8.70
2019-02-05T06:47:46.313Z,8.40
2019-02-05T06:48:46.218Z,8.10
2019-02-05T06:49:46.175Z,9.60
2019-02-05T06:50:46.185Z,9.40
2019-02-05T06:51:46.159Z,8.90
2019-02-05T06:52:46.141Z,8.90
2019-02-05T06:53:46.129Z,8.20
2019-02-05T06:54:46.134Z,9.30
2019-02-05T06:55:46.131Z,8.30
2019-02-05T06:56:46.097Z,8.00
2019-02-05T06:57:46.086Z,8.40
2019-02-05T06:58:46.831Z,8.70
2019-02-05T06:59:46.063Z,7.80
2019-02-05T07:00:46.121Z,8.70
2019-02-05T07:01:46.227Z,8.50
2019-02-05T07:02:46.031Z,8.20
2019-02-05T07:03:46.020Z,8.50
2019-02-05T07:04:46.009Z,8.30
2019-02-05T07:05:46.033Z,8.00
2019-02-05T07:06:46.007Z,8.10
2019-02-05T07:07:45.975Z,7.70
2019-02-05T07:08:45.964Z,8.60
2019-02-05T07:09:45.954Z,8.70
2019-02-05T07:10:45.979Z,8.20
2019-02-05T07:11:45.930Z,8.20
2019-02-05T07:12:45.930Z,7.80
2019-02-05T07:13:45.909Z,7.50
2019-02-05T07:14:45.897Z,8.30
2019-02-05T07:15:46.034Z,8.70
2019-02-05T07:16:45.892Z,8.60
2019-02-05T07:17:49.954Z,8.50
2019-02-05T07:18:45.872Z,8.20
2019-02-05T07:19:45.869Z,7.80
2019-02-05T07:20:45.903Z,7.80
2019-02-05T07:21:45.825Z,7.30
2019-02-05T07:22:45.814Z,8.70
2019-02-05T07:23:45.800Z,8.40
2019-02-05T07:24:45.795Z,8.10
2019-02-05T07:25:45.780Z,8.60
2019-02-05T07:26:45.789Z,8.60
2019-02-05T07:27:46.061Z,8.60
2019-02-05T07:28:57.729Z,8.70
2019-02-05T07:29:46.740Z,8.10
2019-02-05T07:30:45.727Z,9.30
2019-02-05T07:31:45.770Z,8.70
2019-02-05T07:32:45.704Z,8.60
2019-02-05T07:33:45.689Z,8.10
2019-02-05T07:34:45.682Z,7.80
2019-02-05T07:35:45.669Z,9.10
2019-02-05T07:36:45.682Z,8.30
2019-02-05T07:37:46.142Z,9.10
2019-02-05T07:38:45.643Z,8.60
2019-02-05T07:39:45.648Z,8.50
2019-02-05T07:40:45.614Z,8.70
2019-02-05T07:41:45.634Z,9.40
2019-02-05T07:42:45.594Z,7.70
2019-02-05T07:43:45.580Z,8.20
2019-02-05T07:44:45.582Z,8.40
2019-02-05T07:45:45.585Z,7.60
2019-02-05T07:46:45.571Z,8.30
2019-02-05T07:47:45.588Z,8.30
2019-02-05T07:48:45.527Z,8.50
2019-02-05T07:49:45.557Z,8.60
2019-02-05T07:50:45.520Z,8.40
2019-02-05T07:51:45.522Z,7.80
2019-02-05T07:52:45.481Z,7.80
2019-02-05T07:53:45.478Z,7.60
2019-02-05T07:54:45.498Z,7.80
2019-02-05T07:55:45.461Z,7.30
2019-02-05T07:56:45.466Z,9.20
2019-02-05T07:57:45.436Z,9.40
2019-02-05T07:58:45.437Z,9.60
2019-02-05T07:59:47.183Z,8.30
2019-02-05T08:00:45.473Z,9.00
2019-02-05T08:01:45.412Z,8.30
2019-02-05T08:02:45.419Z,7.90
2019-02-05T08:03:45.755Z,8.50
2019-02-05T08:04:45.593Z,7.90
2019-02-05T08:05:45.352Z,8.70
2019-02-05T08:06:45.360Z,8.00
2019-02-05T08:07:45.339Z,8.30
2019-02-05T08:08:45.311Z,7.70
2019-02-05T08:09:45.297Z,7.90
2019-02-05T08:10:45.386Z,8.00
2019-02-05T08:11:45.739Z,8.20
2019-02-05T08:12:45.323Z,8.50
2019-02-05T08:13:45.326Z,7.20
2019-02-05T08:14:45.244Z,8.40
2019-02-05T08:15:45.254Z,7.60
2019-02-05T08:16:47.857Z,7.40
2019-02-05T08:17:45.262Z,8.20
2019-02-05T08:18:45.198Z,7.70
2019-02-05T08:19:45.254Z,7.30
2019-02-05T08:20:45.233Z,8.10
2019-02-05T08:21:45.303Z,7.90
2019-02-05T08:22:45.278Z,7.10
2019-02-05T08:23:45.170Z,8.30
2019-02-05T08:24:45.169Z,8.40
2019-02-05T08:25:45.159Z,8.60
2019-02-05T08:26:45.150Z,8.60
2019-02-05T08:27:45.101Z,8.90
2019-02-05T08:28:45.089Z,8.60
2019-02-05T08:29:45.081Z,7.90
2019-02-05T08:30:45.066Z,9.10
2019-02-05T08:31:45.062Z,8.20
2019-02-05T08:32:45.068Z,8.40
2019-02-05T08:33:45.038Z,8.20
2019-02-05T08:34:45.026Z,7.90
2019-02-05T08:35:45.038Z,8.30
2019-02-05T08:36:45.035Z,8.80
2019-02-05T08:37:45.042Z,8.90
2019-02-05T08:38:45.026Z,9.20
2019-02-05T08:39:45.011Z,7.70
2019-02-05T08:40:44.994Z,8.10
2019-02-05T08:41:44.945Z,8.40
2019-02-05T08:42:44.957Z,8.00
2019-02-05T08:43:44.941Z,8.30
2019-02-05T08:44:44.917Z,8.30
2019-02-05T08:45:55.985Z,8.00
2019-02-05T08:46:45.889Z,7.70
2019-02-05T08:47:44.918Z,8.60
2019-02-05T08:48:44.867Z,7.00
2019-02-05T08:49:44.858Z,8.20
2019-02-05T08:50:44.851Z,8.20
2019-02-05T08:51:44.842Z,8.00
2019-02-05T08:52:44.905Z,7.40
2019-02-05T08:53:44.857Z,7.50
2019-02-05T08:54:44.860Z,7.50
2019-02-05T08:55:44.834Z,8.20
2019-02-05T08:56:44.801Z,7.60
2019-02-05T08:57:44.879Z,8.40
2019-02-05T08:58:44.788Z,8.60
2019-02-05T08:59:44.794Z,8.40
2019-02-05T09:00:44.746Z,7.60
2019-02-05T09:01:44.762Z,9.30
2019-02-05T09:02:44.800Z,10.20
2019-02-05T09:03:44.703Z,9.00
2019-02-05T09:04:44.715Z,8.70
2019-02-05T09:05:44.767Z,8.90
2019-02-05T09:06:44.682Z,8.80
2019-02-05T09:07:44.705Z,8.20
2019-02-05T09:08:44.729Z,8.70
2019-02-05T09:09:44.635Z,8.60
2019-02-05T09:10:44.672Z,8.10
2019-02-05T09:11:44.632Z,9.00
2019-02-05T09:12:44.615Z,7.80
2019-02-05T09:13:44.617Z,7.70
2019-02-05T09:14:44.648Z,9.10
2019-02-05T09:15:44.570Z,9.60
2019-02-05T09:16:44.563Z,8.80
2019-02-05T09:17:44.544Z,8.40
2019-02-05T09:18:44.556Z,8.30
2019-02-05T09:19:44.524Z,8.60
2019-02-05T09:20:44.556Z,8.20
2019-02-05T09:21:44.507Z,9.00
2019-02-05T09:22:44.531Z,8.00
2019-02-05T09:23:44.505Z,8.00
2019-02-05T09:24:44.478Z,7.70
2019-02-05T09:25:45.366Z,7.80
2019-02-05T09:26:44.444Z,7.60
2019-02-05T09:27:44.433Z,7.60
2019-02-05T09:28:44.475Z,7.80
2019-02-05T09:29:44.438Z,8.10
2019-02-05T09:30:44.409Z,8.70
2019-02-05T09:31:44.387Z,8.50
2019-02-05T09:32:44.377Z,8.50
2019-02-05T09:33:44.823Z,8.40
2019-02-05T09:34:44.355Z,8.00
2019-02-05T09:35:44.343Z,8.50
2019-02-05T09:36:44.364Z,7.00
2019-02-05T09:37:44.337Z,7.90
2019-02-05T09:38:44.333Z,7.60
2019-02-05T09:39:44.298Z,8.10
2019-02-05T09:40:44.300Z,8.00
2019-02-05T09:41:44.277Z,8.40
2019-02-05T09:42:44.290Z,7.70
2019-02-05T09:43:44.279Z,8.20
2019-02-05T09:44:44.263Z,8.50
2019-02-05T09:45:44.270Z,7.50
2019-02-05T09:46:44.276Z,7.80
2019-02-05T09:47:44.236Z,8.70
2019-02-05T09:48:44.270Z,8.20
2019-02-05T09:49:44.223Z,8.30
2019-02-05T09:50:45.247Z,7.60
2019-02-05T09:51:44.211Z,7.60
2019-02-05T09:52:44.161Z,8.00
2019-02-05T09:53:44.147Z,7.90
2019-02-05T09:54:44.173Z,7.80
2019-02-05T09:55:44.123Z,8.20
2019-02-05T09:56:44.114Z,7.80
2019-02-05T09:57:44.123Z,7.40
2019-02-05T09:58:44.090Z,7.90
2019-02-05T09:59:45.704Z,7.50
2019-02-05T10:00:44.068Z,7.00
2019-02-05T10:01:44.076Z,7.50
2019-02-05T10:02:44.196Z,7.70
2019-02-05T10:03:44.053Z,8.90
2019-02-05T10:04:44.080Z,7.90
2019-02-05T10:05:44.025Z,8.10
2019-02-05T10:06:44.002Z,6.90
2019-02-05T10:07:44.027Z,7.90
2019-02-05T10:08:43.978Z,6.90
2019-02-05T10:09:43.991Z,7.70
2019-02-05T10:10:43.965Z,7.60
2019-02-05T10:11:43.945Z,6.90
2019-02-05T10:12:46.831Z,6.80
2019-02-05T10:13:43.922Z,7.30
2019-02-05T10:14:43.946Z,7.60
2019-02-05T10:15:43.904Z,7.20
2019-02-05T10:16:43.888Z,7.70
2019-02-05T10:17:43.922Z,7.30
2019-02-05T10:18:45.967Z,7.70
2019-02-05T10:19:43.893Z,7.30
2019-02-05T10:20:43.850Z,7.30
2019-02-05T10:21:43.833Z,6.70
2019-02-05T10:22:43.823Z,7.20
2019-02-05T10:23:43.829Z,6.60
2019-02-05T10:24:43.824Z,7.10
2019-02-05T10:25:43.804Z,7.10
2019-02-05T10:26:43.787Z,7.40
2019-02-05T10:27:43.765Z,7.80
2019-02-05T10:28:43.773Z,6.90
2019-02-05T10:29:43.767Z,7.30
2019-02-05T10:30:43.733Z,7.20
2019-02-05T10:31:43.738Z,6.80
2019-02-05T10:32:43.710Z,7.60
2019-02-05T10:33:54.660Z,8.40
2019-02-05T10:34:44.710Z,8.00
2019-02-05T10:35:43.679Z,8.00
2019-02-05T10:36:43.665Z,7.60
2019-02-05T10:37:43.667Z,7.60
2019-02-05T10:38:43.645Z,7.20
2019-02-05T10:39:43.669Z,6.90
2019-02-05T10:40:43.627Z,8.40
2019-02-05T10:41:43.612Z,7.40
2019-02-05T10:42:44.164Z,8.10
2019-02-05T10:43:43.586Z,8.80
2019-02-05T10:44:43.599Z,8.20
2019-02-05T10:45:43.565Z,7.50
2019-02-05T10:46:43.586Z,7.70
2019-02-05T10:47:43.555Z,7.10
2019-02-05T10:48:43.533Z,7.80
2019-02-05T10:49:43.542Z,7.20
2019-02-05T10:50:43.538Z,7.20
2019-02-05T10:51:43.498Z,7.40
2019-02-05T10:52:43.489Z,6.70
2019-02-05T10:53:43.493Z,7.70
2019-02-05T10:54:43.525Z,8.10
2019-02-05T10:55:43.455Z,8.00
2019-02-05T10:56:43.442Z,7.20
2019-02-05T10:57:43.434Z,6.00
2019-02-05T10:58:43.428Z,7.10
2019-02-05T10:59:43.490Z,8.20
2019-02-05T11:00:43.434Z,9.10
2019-02-05T11:01:43.391Z,7.10
2019-02-05T11:02:43.387Z,8.80
2019-02-05T11:03:43.365Z,7.50
2019-02-05T11:04:43.379Z,7.20
2019-02-05T11:05:43.343Z,6.90
2019-02-05T11:06:43.332Z,7.40
2019-02-05T11:07:43.328Z,7.10
2019-02-05T11:08:43.350Z,7.50
2019-02-05T11:09:43.370Z,7.50
2019-02-05T11:10:43.306Z,9.30
2019-02-05T11:11:43.311Z,10.60
2019-02-05T11:12:43.293Z,10.50
2019-02-05T11:13:43.256Z,8.60
2019-02-05T11:14:43.273Z,9.40
2019-02-05T11:15:43.348Z,10.70
2019-02-05T11:16:43.224Z,10.70
2019-02-05T11:17:43.228Z,10.10
2019-02-05T11:18:43.226Z,9.20
2019-02-05T11:19:43.221Z,7.60
2019-02-05T11:20:43.304Z,7.70
2019-02-05T11:21:43.174Z,8.40
2019-02-05T11:22:43.198Z,7.30
2019-02-05T11:23:43.152Z,8.00
2019-02-05T11:24:43.155Z,8.00
2019-02-05T11:25:43.139Z,7.70
2019-02-05T11:26:43.111Z,7.40
2019-02-05T11:27:45.842Z,7.40
2019-02-05T11:28:43.090Z,7.70
2019-02-05T11:29:43.110Z,7.40
2019-02-05T11:30:43.171Z,8.30
2019-02-05T11:31:43.110Z,8.40
2019-02-05T11:32:43.057Z,7.10
2019-02-05T11:33:43.055Z,7.60
2019-02-05T11:34:43.022Z,7.00
2019-02-05T11:35:43.035Z,6.90
2019-02-05T11:36:43.006Z,6.90
2019-02-05T11:37:42.995Z,7.30
2019-02-05T11:38:42.978Z,7.30
2019-02-05T11:39:42.967Z,7.10
2019-02-05T11:40:43.029Z,6.60
2019-02-05T11:41:42.965Z,8.00
2019-02-05T11:42:42.949Z,7.70
2019-02-05T11:43:42.929Z,8.70
2019-02-05T11:44:42.914Z,11.00
2019-02-05T11:45:42.947Z,9.50
2019-02-05T11:46:42.982Z,8.50
2019-02-05T11:47:42.880Z,7.20
2019-02-05T11:48:42.867Z,6.40
2019-02-05T11:49:42.890Z,6.70
2019-02-05T11:50:42.892Z,7.30
2019-02-05T11:51:42.835Z,7.50
2019-02-05T11:52:42.830Z,7.80
2019-02-05T11:53:42.813Z,9.20
2019-02-05T11:54:42.802Z,8.60
2019-02-05T11:55:42.818Z,7.20
2019-02-05T11:56:42.791Z,7.90
2019-02-05T11:57:42.803Z,6.80
2019-02-05T11:58:42.757Z,6.80
2019-02-05T11:59:42.758Z,7.40
2019-02-05T12:00:42.769Z,7.40
2019-02-05T12:01:42.770Z,7.00
2019-02-05T12:02:42.711Z,8.00
2019-02-05T12:03:42.705Z,8.10
2019-02-05T12:04:42.691Z,7.50
2019-02-05T12:05:42.713Z,7.80
2019-02-05T12:06:42.683Z,7.90
2019-02-05T12:07:42.661Z,8.50
2019-02-05T12:08:42.646Z,7.30
2019-02-05T12:09:42.637Z,7.90
2019-02-05T12:10:42.632Z,8.40
2019-02-05T12:11:42.774Z,8.30
2019-02-05T12:12:42.601Z,8.50
2019-02-05T12:13:42.590Z,8.50
2019-02-05T12:14:42.580Z,8.50
2019-02-05T12:15:42.578Z,7.20
2019-02-05T12:16:42.617Z,8.00
2019-02-05T12:17:42.544Z,8.20
2019-02-05T12:18:42.535Z,7.90
2019-02-05T12:19:42.524Z,8.40
2019-02-05T12:20:42.512Z,7.60
2019-02-05T12:21:42.581Z,7.50
2019-02-05T12:22:43.273Z,7.20
2019-02-05T12:23:42.484Z,7.80
2019-02-05T12:24:42.470Z,8.80
2019-02-05T12:25:42.468Z,10.90
2019-02-05T12:26:42.472Z,10.50
2019-02-05T12:27:42.451Z,9.60
2019-02-05T12:28:42.424Z,9.20
2019-02-05T12:29:42.426Z,9.80
2019-02-05T12:30:45.421Z,8.60
2019-02-05T12:31:42.420Z,9.70
2019-02-05T12:32:42.379Z,9.20
2019-02-05T12:33:42.380Z,7.30
2019-02-05T12:34:42.357Z,8.20
2019-02-05T12:35:42.346Z,8.60
2019-02-05T12:36:42.370Z,8.00
2019-02-05T12:37:42.348Z,7.80
2019-02-05T12:38:42.318Z,7.60
2019-02-05T12:39:42.301Z,8.10
2019-02-05T12:40:42.291Z,8.40
2019-02-05T12:41:42.316Z,7.90
2019-02-05T12:42:42.270Z,8.10
2019-02-05T12:43:42.303Z,8.80
2019-02-05T12:44:42.249Z,8.60
2019-02-05T12:45:42.238Z,7.90
2019-02-05T12:46:42.224Z,8.90
2019-02-05T12:47:42.238Z,8.40
2019-02-05T12:48:42.205Z,9.50
2019-02-05T12:49:42.199Z,8.90
2019-02-05T12:50:42.202Z,8.00
2019-02-05T12:51:42.171Z,8.60
2019-02-05T12:52:42.188Z,8.20
2019-02-05T12:53:42.149Z,8.20
2019-02-05T12:54:42.142Z,8.30
2019-02-05T12:55:42.127Z,8.10
2019-02-05T12:56:42.115Z,8.90
2019-02-05T12:57:42.151Z,8.90
2019-02-05T12:58:42.093Z,8.10
2019-02-05T12:59:42.084Z,8.60
2019-02-05T13:00:42.072Z,8.30
2019-02-05T13:01:42.060Z,9.10
2019-02-05T13:02:42.073Z,9.00
2019-02-05T13:03:42.046Z,8.30
2019-02-05T13:04:42.047Z,8.70
2019-02-05T13:05:42.040Z,8.10
2019-02-05T13:06:42.005Z,8.70
2019-02-05T13:07:42.019Z,7.90
2019-02-05T13:08:42.026Z,7.80
2019-02-05T13:09:41.973Z,9.40
2019-02-05T13:10:41.965Z,7.90
2019-02-05T13:11:41.967Z,8.50
2019-02-05T13:12:41.962Z,8.70
2019-02-05T13:13:41.928Z,7.90
2019-02-05T13:14:41.917Z,8.10
2019-02-05T13:15:41.906Z,8.60
2019-02-05T13:16:41.901Z,8.60
2019-02-05T13:17:41.887Z,9.00
2019-02-05T13:18:41.903Z,8.30